KDA weather

Kolda North Airport
Kolda, Kolda Region, Senegal

Public forecast

Using degrees Celsius for public forecast. Weather courtesy of forecast.io.

METAR (pilot weather report)

Closest report is Osvaldo Vieira International Airport, 72.4 nm (134.2 km) SW. Retrieved 2019/03/25 06:00 UTC (7 minutes ago):

GGOV 250600Z 00000KT CAVOK 19/17 Q1011 NOSIG

TAF (pilot weather forecast)

Closest forecast is Osvaldo Vieira International Airport, 72.4 nm (134.2 km) SW. Retrieved 2019/03/25 00:09 UTC (6 hours ago):

TAF GGOV 242300Z 2500/2524 30008KT CAVOK